createdAt,value
2024-02-29T00:00:22.777Z,84.53
2024-02-29T00:02:50.796Z,87.50
2024-02-29T00:05:19.151Z,78.93
2024-02-29T00:07:47.819Z,81.45
2024-02-29T00:10:17.652Z,84.32
2024-02-29T00:12:45.795Z,86.22
2024-02-29T00:15:16.097Z,85.63
2024-02-29T00:17:45.626Z,81.47
2024-02-29T00:20:14.220Z,88.20
2024-02-29T00:22:43.025Z,87.57
2024-02-29T00:25:11.336Z,80.25
2024-02-29T00:27:41.580Z,82.30
2024-02-29T00:30:11.482Z,85.75
2024-02-29T00:32:39.676Z,81.75
2024-02-29T00:35:10.303Z,81.00
2024-02-29T00:37:38.524Z,78.05
2024-02-29T00:40:08.441Z,82.00
2024-02-29T00:42:36.994Z,76.95
2024-02-29T00:45:06.428Z,69.45
2024-02-29T00:47:34.489Z,82.30
2024-02-29T00:50:02.654Z,80.28
2024-02-29T00:52:32.076Z,72.22
2024-02-29T00:55:03.241Z,72.78
2024-02-29T00:57:31.591Z,74.40
2024-02-29T00:59:59.685Z,77.60
2024-02-29T01:02:27.829Z,74.28
2024-02-29T01:04:55.844Z,72.70
2024-02-29T01:07:23.967Z,76.20
2024-02-29T01:09:53.774Z,74.90
2024-02-29T01:12:24.800Z,75.55
2024-02-29T01:14:53.101Z,78.28
2024-02-29T01:17:24.005Z,75.35
2024-02-29T01:19:52.123Z,72.35
2024-02-29T01:22:21.638Z,74.10
2024-02-29T01:24:49.736Z,66.32
2024-02-29T01:27:19.654Z,67.35
2024-02-29T01:29:47.704Z,65.32
2024-02-29T01:32:22.178Z,63.72
2024-02-29T01:34:54.466Z,62.72
2024-02-29T01:37:22.506Z,64.97
2024-02-29T01:39:50.623Z,59.85
2024-02-29T01:42:21.163Z,60.50
2024-02-29T01:44:57.831Z,59.35
2024-02-29T01:47:26.636Z,52.60
2024-02-29T01:49:59.145Z,57.75
2024-02-29T01:52:30.896Z,56.92
2024-02-29T01:54:59.261Z,54.78
2024-02-29T01:57:32.551Z,60.83
2024-02-29T02:00:01.722Z,58.25
2024-02-29T02:02:29.810Z,58.10
2024-02-29T02:04:58.066Z,64.97
2024-02-29T02:07:26.305Z,65.88
2024-02-29T02:09:54.379Z,63.25
2024-02-29T02:12:22.740Z,67.47
2024-02-29T02:14:52.182Z,69.32
2024-02-29T02:17:20.327Z,72.22
2024-02-29T02:19:49.730Z,79.22
2024-02-29T02:22:19.343Z,86.75
2024-02-29T02:24:47.599Z,89.47
2024-02-29T02:27:15.664Z,86.38
2024-02-29T02:29:43.782Z,87.68
2024-02-29T02:32:12.439Z,98.32
2024-02-29T02:34:40.487Z,91.15
2024-02-29T02:37:10.824Z,81.55
2024-02-29T02:39:40.603Z,85.78
2024-02-29T02:42:08.769Z,78.80
2024-02-29T02:44:36.859Z,81.30
2024-02-29T02:47:04.993Z,91.25
2024-02-29T02:49:33.112Z,88.63
2024-02-29T02:52:01.297Z,88.38
2024-02-29T02:54:29.380Z,76.35
2024-02-29T02:56:58.877Z,74.20
2024-02-29T02:59:27.009Z,71.90
2024-02-29T03:01:56.963Z,71.95
2024-02-29T03:04:26.122Z,67.97
2024-02-29T03:06:54.258Z,72.28
2024-02-29T03:09:22.370Z,66.75
2024-02-29T03:11:50.456Z,69.50
2024-02-29T03:14:19.876Z,74.55
2024-02-29T03:16:48.404Z,78.25
2024-02-29T03:19:16.633Z,73.60
2024-02-29T03:21:44.792Z,75.60
2024-02-29T03:24:12.869Z,80.38
2024-02-29T03:26:40.927Z,82.05
2024-02-29T03:29:09.324Z,86.95
2024-02-29T03:31:38.777Z,88.10
2024-02-29T03:34:06.976Z,89.70
2024-02-29T03:36:35.178Z,89.63
2024-02-29T03:39:06.163Z,90.28
2024-02-29T03:41:34.425Z,101.80
2024-02-29T03:44:02.473Z,101.22
2024-02-29T03:46:30.501Z,93.85
2024-02-29T03:48:59.992Z,105.78
2024-02-29T03:51:28.436Z,115.40
2024-02-29T03:53:56.539Z,110.72
2024-02-29T03:56:27.162Z,115.78
2024-02-29T03:58:55.142Z,119.20
2024-02-29T04:01:23.337Z,121.32
2024-02-29T04:03:51.493Z,118.57
2024-02-29T04:06:20.935Z,117.25
2024-02-29T04:08:49.069Z,116.93
2024-02-29T04:11:17.167Z,106.13
2024-02-29T04:13:46.087Z,98.13
2024-02-29T04:16:14.871Z,97.40
2024-02-29T04:18:43.012Z,96.28
2024-02-29T04:21:11.086Z,92.85
2024-02-29T04:23:40.495Z,99.53
2024-02-29T04:26:09.018Z,115.82
2024-02-29T04:28:37.064Z,113.15
2024-02-29T04:31:06.244Z,113.45
2024-02-29T04:33:34.423Z,114.85
2024-02-29T04:36:02.549Z,112.38
2024-02-29T04:38:30.610Z,100.65
2024-02-29T04:41:00.040Z,107.95
2024-02-29T04:43:31.569Z,121.90
2024-02-29T04:46:00.798Z,132.35
2024-02-29T04:48:28.980Z,124.88
2024-02-29T04:50:57.203Z,108.80
2024-02-29T04:53:25.255Z,116.85
2024-02-29T04:55:53.429Z,111.20
2024-02-29T04:58:23.194Z,121.28
2024-02-29T05:00:51.353Z,132.50
2024-02-29T05:03:19.521Z,120.72
2024-02-29T05:05:47.732Z,140.18
2024-02-29T05:08:15.900Z,129.52
2024-02-29T05:10:44.113Z,130.82
2024-02-29T05:13:12.275Z,128.02
2024-02-29T05:15:41.872Z,140.70
2024-02-29T05:18:10.103Z,143.68
2024-02-29T05:20:38.237Z,131.38
2024-02-29T05:23:07.105Z,139.93
2024-02-29T05:25:36.956Z,139.38
2024-02-29T05:28:07.118Z,149.90
2024-02-29T05:30:35.226Z,158.95
2024-02-29T05:33:05.122Z,158.00
2024-02-29T05:35:34.883Z,161.60
2024-02-29T05:38:02.979Z,160.75
2024-02-29T05:40:34.050Z,166.70
2024-02-29T05:43:04.801Z,172.48
2024-02-29T05:45:34.582Z,166.38
2024-02-29T05:48:05.365Z,171.30
2024-02-29T05:50:34.435Z,167.85
2024-02-29T05:53:02.840Z,161.55
2024-02-29T05:55:31.050Z,159.25
2024-02-29T05:57:59.254Z,159.77
2024-02-29T06:00:27.597Z,148.05
2024-02-29T06:02:55.716Z,145.90
2024-02-29T06:05:25.303Z,145.85
2024-02-29T06:07:53.432Z,149.57
2024-02-29T06:10:22.016Z,139.18
2024-02-29T06:12:50.149Z,150.55
2024-02-29T06:15:19.196Z,144.45
2024-02-29T06:17:48.122Z,152.10
2024-02-29T06:20:16.474Z,141.63
2024-02-29T06:22:48.531Z,130.05
2024-02-29T06:25:17.659Z,139.75
2024-02-29T06:27:45.955Z,135.57
2024-02-29T06:30:15.011Z,128.50
2024-02-29T06:32:45.255Z,138.75
2024-02-29T06:35:13.854Z,131.75
2024-02-29T06:37:43.722Z,135.07
2024-02-29T06:40:14.763Z,125.22
2024-02-29T06:42:43.215Z,120.00
2024-02-29T06:45:11.857Z,124.20
2024-02-29T06:47:42.475Z,124.90
2024-02-29T06:50:13.246Z,117.03
2024-02-29T06:52:42.812Z,120.22
2024-02-29T06:55:11.328Z,123.30
2024-02-29T06:57:40.979Z,108.85
2024-02-29T07:00:10.573Z,114.05
2024-02-29T07:02:39.350Z,103.18
2024-02-29T07:05:10.903Z,106.30
2024-02-29T07:07:39.121Z,98.47
2024-02-29T07:10:08.758Z,96.85
2024-02-29T07:12:41.914Z,91.70
2024-02-29T07:15:11.076Z,98.57
2024-02-29T07:17:39.343Z,94.10
2024-02-29T07:20:09.193Z,90.03
2024-02-29T07:22:38.305Z,83.80
2024-02-29T07:25:08.821Z,81.63
2024-02-29T07:27:38.911Z,83.95
2024-02-29T07:30:10.449Z,81.38
2024-02-29T07:32:39.107Z,88.07
2024-02-29T07:35:07.858Z,79.75
2024-02-29T07:37:39.939Z,75.10
2024-02-29T07:40:09.642Z,75.70
2024-02-29T07:42:40.305Z,76.45
2024-02-29T07:45:11.477Z,75.28
2024-02-29T07:47:40.913Z,81.35
2024-02-29T07:50:11.114Z,75.88
2024-02-29T07:52:39.645Z,73.18
2024-02-29T07:55:08.066Z,65.60
2024-02-29T07:57:36.410Z,74.07
2024-02-29T08:00:05.524Z,82.15
2024-02-29T08:02:36.686Z,67.28
2024-02-29T08:05:05.175Z,64.78
2024-02-29T08:07:33.357Z,62.40
2024-02-29T08:10:01.574Z,59.30
2024-02-29T08:12:30.600Z,64.78
2024-02-29T08:14:58.812Z,60.55
2024-02-29T08:17:28.453Z,58.50
2024-02-29T08:19:58.220Z,61.20
2024-02-29T08:22:29.027Z,62.35
2024-02-29T08:24:58.324Z,54.25
2024-02-29T08:27:28.366Z,45.00
2024-02-29T08:29:56.485Z,46.35
2024-02-29T08:32:24.875Z,49.25
2024-02-29T08:34:56.342Z,46.08
2024-02-29T08:37:25.937Z,47.30
2024-02-29T08:39:54.693Z,49.33
2024-02-29T08:42:23.106Z,42.70
2024-02-29T08:44:56.305Z,44.05
2024-02-29T08:47:25.806Z,41.70
2024-02-29T08:49:54.624Z,40.33
2024-02-29T08:52:22.821Z,42.20
2024-02-29T08:54:52.873Z,37.92
2024-02-29T08:57:21.208Z,42.35
2024-02-29T08:59:49.592Z,43.03
2024-02-29T09:02:19.356Z,40.88
2024-02-29T09:04:47.549Z,38.55
2024-02-29T09:07:16.241Z,37.75
2024-02-29T09:09:44.507Z,39.67
2024-02-29T09:12:16.047Z,40.55
2024-02-29T09:14:44.255Z,43.92
2024-02-29T09:17:12.494Z,44.20
2024-02-29T09:19:40.793Z,41.28
2024-02-29T09:22:09.251Z,48.58
2024-02-29T09:24:37.915Z,48.13
2024-02-29T09:27:06.782Z,43.22
2024-02-29T09:29:36.538Z,42.92
2024-02-29T09:32:05.110Z,48.22
2024-02-29T09:34:38.402Z,46.35
2024-02-29T09:37:08.324Z,47.42
2024-02-29T09:39:38.832Z,55.40
2024-02-29T09:42:12.782Z,43.40
2024-02-29T09:44:45.936Z,48.53
2024-02-29T09:47:15.852Z,46.08
2024-02-29T09:49:48.887Z,44.28
2024-02-29T09:52:17.938Z,47.13
2024-02-29T09:54:47.770Z,51.85
2024-02-29T09:57:16.547Z,45.55
2024-02-29T09:59:46.470Z,43.65
2024-02-29T10:02:17.428Z,40.28
2024-02-29T10:04:47.491Z,37.65
2024-02-29T10:07:16.928Z,41.85
2024-02-29T10:09:45.687Z,41.10
2024-02-29T10:12:18.708Z,35.90
2024-02-29T10:14:51.372Z,36.83
2024-02-29T10:17:20.015Z,36.80
2024-02-29T10:19:53.459Z,35.75
2024-02-29T10:22:22.432Z,38.05
2024-02-29T10:24:55.804Z,37.47
2024-02-29T10:27:27.512Z,35.67
2024-02-29T10:29:59.196Z,35.53
2024-02-29T10:32:27.630Z,40.28
2024-02-29T10:34:58.205Z,38.55
2024-02-29T10:37:26.552Z,41.85
2024-02-29T10:39:54.900Z,43.17
2024-02-29T10:42:28.338Z,39.63
2024-02-29T10:44:59.876Z,39.25
2024-02-29T10:47:31.406Z,42.58
2024-02-29T10:50:06.089Z,39.05
2024-02-29T10:52:40.823Z,40.00
2024-02-29T10:55:14.109Z,41.58
2024-02-29T10:57:50.302Z,40.03
2024-02-29T11:00:26.364Z,39.85
2024-02-29T11:02:58.282Z,37.15
2024-02-29T11:05:27.554Z,40.42
2024-02-29T11:07:55.192Z,36.67
2024-02-29T11:10:24.008Z,39.05
2024-02-29T11:12:58.810Z,37.30
2024-02-29T11:15:29.825Z,35.30
2024-02-29T11:17:59.022Z,36.55
2024-02-29T11:20:29.176Z,33.78
2024-02-29T11:23:10.861Z,35.03
2024-02-29T11:25:44.021Z,34.58
2024-02-29T11:28:13.246Z,39.83
2024-02-29T11:30:44.789Z,39.45
2024-02-29T11:33:13.226Z,39.10
2024-02-29T11:35:43.359Z,37.60
2024-02-29T11:38:15.640Z,36.47
2024-02-29T11:40:45.699Z,34.58
2024-02-29T11:43:14.141Z,34.33
2024-02-29T11:45:44.174Z,33.60
2024-02-29T11:48:12.328Z,35.30
2024-02-29T11:50:40.525Z,34.00
2024-02-29T11:53:08.774Z,32.58
2024-02-29T11:55:37.152Z,31.70
2024-02-29T11:58:06.424Z,31.98
2024-02-29T12:00:34.627Z,31.05
2024-02-29T12:03:05.556Z,28.48
2024-02-29T12:05:35.968Z,31.77
2024-02-29T12:08:05.212Z,31.63
2024-02-29T12:10:33.509Z,29.98
2024-02-29T12:13:01.888Z,31.58
2024-02-29T12:15:30.480Z,32.17
2024-02-29T12:18:00.564Z,30.63
2024-02-29T12:20:30.563Z,28.90
2024-02-29T12:23:02.122Z,27.02
2024-02-29T12:25:30.311Z,30.08
2024-02-29T12:27:58.621Z,28.20
2024-02-29T12:30:26.702Z,29.02
2024-02-29T12:32:54.865Z,24.23
2024-02-29T12:35:28.480Z,27.05
2024-02-29T12:37:59.308Z,26.90
2024-02-29T12:40:30.688Z,27.20
2024-02-29T12:42:59.828Z,24.23
2024-02-29T12:45:29.441Z,25.48
2024-02-29T12:47:57.925Z,27.63
2024-02-29T12:50:26.171Z,28.98
2024-02-29T12:52:57.652Z,28.75
2024-02-29T12:55:27.267Z,27.52
2024-02-29T12:57:55.530Z,25.70
2024-02-29T13:00:25.969Z,27.77
2024-02-29T13:02:55.161Z,28.13
2024-02-29T13:05:25.403Z,27.67
2024-02-29T13:07:53.887Z,28.00
2024-02-29T13:10:23.633Z,29.60
2024-02-29T13:12:57.382Z,30.80
2024-02-29T13:15:31.603Z,29.30
2024-02-29T13:17:59.708Z,30.25
2024-02-29T13:20:31.207Z,30.60
2024-02-29T13:23:00.028Z,29.13
2024-02-29T13:25:28.366Z,25.08
2024-02-29T13:27:58.081Z,30.92
2024-02-29T13:30:26.321Z,28.88
2024-02-29T13:32:53.539Z,27.90
2024-02-29T13:35:21.935Z,27.85
2024-02-29T13:37:50.100Z,30.40
2024-02-29T13:40:18.331Z,28.48
2024-02-29T13:42:48.681Z,25.60
2024-02-29T13:45:20.640Z,28.80
2024-02-29T13:47:51.868Z,24.48
2024-02-29T13:50:22.156Z,27.33
2024-02-29T13:52:50.700Z,29.80
2024-02-29T13:55:19.077Z,27.10
2024-02-29T13:57:47.372Z,26.40
2024-02-29T14:00:17.410Z,31.52
2024-02-29T14:02:48.598Z,28.30
2024-02-29T14:05:17.886Z,26.15
2024-02-29T14:07:48.712Z,30.00
2024-02-29T14:10:17.797Z,29.30
2024-02-29T14:12:46.818Z,27.48
2024-02-29T14:15:15.643Z,26.40
2024-02-29T14:17:45.327Z,28.10
2024-02-29T14:20:13.823Z,29.83
2024-02-29T14:22:41.952Z,33.20
2024-02-29T14:25:10.776Z,30.63
2024-02-29T14:27:39.644Z,28.45
2024-02-29T14:30:10.558Z,28.00
2024-02-29T14:32:39.942Z,32.00
2024-02-29T14:35:10.884Z,28.17
2024-02-29T14:37:39.329Z,25.73
2024-02-29T14:40:12.419Z,29.35
2024-02-29T14:42:41.272Z,29.08
2024-02-29T14:45:10.442Z,26.73
2024-02-29T14:47:38.646Z,29.02
2024-02-29T14:50:09.054Z,31.15
2024-02-29T14:52:40.638Z,25.20
2024-02-29T14:55:09.745Z,27.50
2024-02-29T14:57:38.029Z,30.73
2024-02-29T15:00:15.272Z,29.95
2024-02-29T15:02:44.542Z,29.42
2024-02-29T15:05:12.903Z,30.05
2024-02-29T15:07:43.299Z,32.17
2024-02-29T15:10:12.929Z,29.30
2024-02-29T15:12:41.813Z,29.48
2024-02-29T15:15:11.514Z,29.13
2024-02-29T15:17:40.160Z,30.95
2024-02-29T15:20:11.286Z,33.05
2024-02-29T15:22:40.770Z,32.08
2024-02-29T15:25:17.002Z,31.98
2024-02-29T15:27:47.487Z,28.75
2024-02-29T15:30:16.335Z,29.95
2024-02-29T15:32:44.623Z,29.15
2024-02-29T15:35:12.957Z,31.45
2024-02-29T15:37:41.445Z,31.73
2024-02-29T15:40:12.647Z,31.20
2024-02-29T15:42:40.982Z,31.15
2024-02-29T15:45:09.836Z,32.88
2024-02-29T15:47:38.155Z,31.40
2024-02-29T15:50:09.093Z,33.80
2024-02-29T15:52:37.268Z,29.25
2024-02-29T15:55:06.183Z,32.17
2024-02-29T15:57:35.746Z,33.58
2024-02-29T16:00:06.539Z,34.33
2024-02-29T16:02:36.762Z,31.17
2024-02-29T16:05:06.036Z,28.50
2024-02-29T16:07:34.264Z,31.30
2024-02-29T16:10:03.294Z,31.92
2024-02-29T16:12:32.059Z,33.03
2024-02-29T16:15:01.831Z,32.80
2024-02-29T16:17:30.033Z,32.92
2024-02-29T16:19:58.330Z,36.28
2024-02-29T16:22:27.928Z,35.13
2024-02-29T16:24:56.616Z,38.63
2024-02-29T16:27:24.870Z,42.80
2024-02-29T16:29:53.059Z,43.58
2024-02-29T16:32:22.647Z,46.08
2024-02-29T16:34:50.854Z,49.75
2024-02-29T16:37:19.070Z,49.35
2024-02-29T16:39:47.305Z,49.10
2024-02-29T16:42:17.014Z,49.20
2024-02-29T16:44:46.465Z,47.22
2024-02-29T16:47:14.940Z,48.08
2024-02-29T16:49:46.224Z,48.92
2024-02-29T16:52:15.411Z,50.65
2024-02-29T16:54:43.685Z,44.88
2024-02-29T16:57:11.930Z,45.67
2024-02-29T16:59:40.665Z,42.60
2024-02-29T17:02:09.333Z,43.53
2024-02-29T17:04:37.603Z,43.60
2024-02-29T17:07:07.520Z,43.35
2024-02-29T17:09:38.021Z,44.13
2024-02-29T17:12:09.639Z,43.90
2024-02-29T17:14:38.084Z,43.95
2024-02-29T17:17:09.622Z,40.05
2024-02-29T17:19:38.245Z,39.05
2024-02-29T17:22:07.858Z,43.58
2024-02-29T17:24:37.611Z,40.28
2024-02-29T17:27:06.388Z,43.50
2024-02-29T17:29:34.578Z,42.60
2024-02-29T17:32:02.824Z,42.50
2024-02-29T17:34:31.050Z,38.28
2024-02-29T17:36:59.562Z,43.53
2024-02-29T17:39:30.213Z,42.50
2024-02-29T17:41:58.493Z,40.78
2024-02-29T17:44:26.684Z,40.58
2024-02-29T17:46:57.123Z,42.22
2024-02-29T17:49:25.525Z,42.60
2024-02-29T17:51:53.891Z,43.00
2024-02-29T17:54:22.087Z,58.17
2024-02-29T17:56:54.785Z,41.28
2024-02-29T17:59:23.101Z,41.92
2024-02-29T18:01:51.354Z,45.08
2024-02-29T18:04:19.615Z,44.25
2024-02-29T18:06:49.929Z,46.53
2024-02-29T18:09:19.493Z,40.83
2024-02-29T18:11:47.560Z,44.05
2024-02-29T18:14:19.097Z,45.25
2024-02-29T18:16:47.277Z,42.10
2024-02-29T18:19:15.789Z,40.78
2024-02-29T18:21:45.190Z,42.90
2024-02-29T18:24:14.506Z,41.60
2024-02-29T18:26:44.771Z,44.08
2024-02-29T18:29:14.354Z,43.10
2024-02-29T18:31:44.021Z,49.38
2024-02-29T18:34:12.244Z,44.40
2024-02-29T18:36:41.325Z,41.15
2024-02-29T18:39:13.037Z,46.22
2024-02-29T18:41:43.017Z,45.70
2024-02-29T18:44:12.140Z,50.60
2024-02-29T18:46:43.038Z,43.78
2024-02-29T18:49:15.515Z,44.78
2024-02-29T18:51:45.417Z,47.25
2024-02-29T18:54:13.951Z,45.22
2024-02-29T18:56:43.251Z,46.72
2024-02-29T18:59:11.411Z,43.47
2024-02-29T19:01:39.636Z,45.67
2024-02-29T19:04:08.040Z,45.42
2024-02-29T19:06:37.582Z,60.97
2024-02-29T19:09:09.252Z,46.03
2024-02-29T19:11:44.469Z,79.28
2024-02-29T19:14:15.842Z,59.28
2024-02-29T19:16:45.899Z,48.13
2024-02-29T19:19:20.445Z,47.70
2024-02-29T19:21:50.416Z,45.17
2024-02-29T19:24:18.564Z,43.28
2024-02-29T19:26:46.693Z,45.97
2024-02-29T19:29:15.044Z,46.72
2024-02-29T19:31:43.225Z,48.35
2024-02-29T19:34:11.612Z,52.80
2024-02-29T19:36:39.803Z,44.75
2024-02-29T19:39:09.287Z,50.17
2024-02-29T19:41:37.377Z,47.35
2024-02-29T19:44:05.835Z,46.97
2024-02-29T19:46:34.178Z,53.30
2024-02-29T19:49:02.580Z,47.25
2024-02-29T19:51:30.993Z,50.38
2024-02-29T19:53:59.142Z,51.72
2024-02-29T19:56:28.672Z,48.88
2024-02-29T19:58:56.794Z,48.78
2024-02-29T20:01:25.021Z,54.15
2024-02-29T20:03:53.353Z,54.50
2024-02-29T20:06:22.208Z,54.08
2024-02-29T20:08:50.370Z,61.45
2024-02-29T20:11:18.605Z,48.97
2024-02-29T20:13:48.929Z,88.03
2024-02-29T20:16:17.219Z,52.03
2024-02-29T20:18:46.132Z,68.80
2024-02-29T20:21:15.238Z,73.03
2024-02-29T20:23:43.362Z,54.33
2024-02-29T20:26:16.857Z,59.95
2024-02-29T20:28:45.043Z,69.35
2024-02-29T20:31:14.958Z,59.63
2024-02-29T20:33:43.145Z,67.30
2024-02-29T20:36:11.970Z,56.97
2024-02-29T20:38:40.240Z,68.60
2024-02-29T20:41:09.783Z,76.22
2024-02-29T20:43:38.185Z,75.82
2024-02-29T20:46:06.521Z,62.13
2024-02-29T20:48:36.260Z,62.17
2024-02-29T20:51:04.792Z,59.72
2024-02-29T20:53:33.054Z,56.80
2024-02-29T20:56:01.274Z,63.40
2024-02-29T20:58:29.480Z,62.80
2024-02-29T21:00:57.996Z,54.42
2024-02-29T21:03:26.577Z,59.08
2024-02-29T21:06:02.505Z,56.25
2024-02-29T21:08:33.385Z,56.97
2024-02-29T21:11:02.324Z,51.90
2024-02-29T21:13:32.060Z,58.58
2024-02-29T21:16:00.369Z,56.80
2024-02-29T21:18:28.630Z,57.00
2024-02-29T21:20:58.394Z,61.13
2024-02-29T21:23:26.510Z,58.42
2024-02-29T21:25:55.795Z,55.80
2024-02-29T21:28:23.928Z,55.58
2024-02-29T21:30:52.353Z,55.78
2024-02-29T21:33:21.450Z,56.70
2024-02-29T21:35:51.452Z,57.90
2024-02-29T21:38:21.316Z,60.55
2024-02-29T21:40:54.720Z,63.22
2024-02-29T21:43:26.598Z,64.38
2024-02-29T21:45:56.309Z,64.82
2024-02-29T21:48:24.647Z,62.42
2024-02-29T21:50:53.226Z,61.63
2024-02-29T21:53:24.157Z,60.60
2024-02-29T21:55:52.357Z,64.75
2024-02-29T21:58:20.512Z,67.47
2024-02-29T22:00:49.003Z,67.22
2024-02-29T22:03:17.222Z,69.45
2024-02-29T22:05:45.300Z,71.45
2024-02-29T22:08:13.436Z,66.28
2024-02-29T22:10:45.106Z,69.78
2024-02-29T22:13:13.898Z,68.60
2024-02-29T22:15:42.146Z,62.08
2024-02-29T22:18:10.294Z,62.80
2024-02-29T22:20:38.421Z,68.45
2024-02-29T22:23:06.462Z,68.35
2024-02-29T22:25:35.574Z,66.60
2024-02-29T22:28:05.535Z,71.38
2024-02-29T22:30:33.604Z,72.05
2024-02-29T22:33:01.924Z,65.45
2024-02-29T22:35:30.164Z,64.45
2024-02-29T22:37:58.429Z,64.78
2024-02-29T22:40:26.560Z,65.47
2024-02-29T22:42:54.652Z,67.43
2024-02-29T22:45:27.333Z,67.32
2024-02-29T22:47:55.484Z,69.28
2024-02-29T22:50:23.633Z,65.18
2024-02-29T22:52:59.508Z,73.72
2024-02-29T22:55:27.686Z,70.60
2024-02-29T22:57:55.835Z,75.38
2024-02-29T23:00:31.805Z,69.63
2024-02-29T23:03:00.310Z,69.03
2024-02-29T23:05:28.566Z,68.90
2024-02-29T23:07:56.877Z,67.15
2024-02-29T23:10:27.024Z,76.22
2024-02-29T23:12:56.043Z,71.72
2024-02-29T23:15:25.591Z,71.80
2024-02-29T23:17:56.130Z,70.68
2024-02-29T23:20:24.987Z,76.05
2024-02-29T23:22:54.042Z,78.32
2024-02-29T23:25:24.950Z,81.07
2024-02-29T23:27:53.789Z,76.53
2024-02-29T23:30:22.128Z,80.32
2024-02-29T23:32:51.989Z,81.03
2024-02-29T23:35:20.452Z,82.15
2024-02-29T23:37:48.790Z,81.35
2024-02-29T23:40:17.216Z,80.07
2024-02-29T23:42:46.146Z,83.32
2024-02-29T23:45:14.513Z,92.22
2024-02-29T23:47:42.860Z,86.50
2024-02-29T23:50:13.015Z,82.22
2024-02-29T23:52:41.396Z,84.07
2024-02-29T23:55:10.005Z,80.90
2024-02-29T23:57:38.465Z,73.75
